SKVV/VVC METAR and TAF weather

Enter ICAO airport designator
Station Type Date Time Source
SKVV METAR 2019/07/17 18:00 UTC NOAA

SKVV 171800Z 21004KT 9999 SCT020 BKN090 28/21 A3005


Station Type Date Time Source
SKVV Decoded METAR 2019/07/17 18:00 UTC NOAA

Villavicencio / Vanguardia, Colombia (SKVV) 04-10N 073-37W 431M
Jul 17, 2019 - 02:00 PM EDT / 2019.07.17 1800 UTC
Wind: from the SSW (210 degrees) at 5 MPH (4 KT):0
Visibility: greater than 7 mile(s):0
Sky conditions: mostly cloudy
Temperature: 82 F (28 C)
Dew Point: 69 F (21 C)
Relative Humidity: 65%
Pressure (altimeter): 30.05 in. Hg (1017 hPa)
ob: SKVV 171800Z 21004KT 9999 SCT020 BKN090 28/21 A3005
cycle: 18

Station Type Date Time Source
SKVV TAF UTC NOAA

Error!

Example: see airport list